Time;durP1;ratioP1;P1;durP2;ratioP2;P2;SDS_P1;SDS_P2;PMS_P1;PMS_P2;Temp;Humidity;BMP_temperature;BMP_pressure;BME280_temperature;BME280_humidity;BME280_pressure;Samples;Min_cycle;Max_cycle;Signal;HPM_P1;HPM_P2
2021/05/03 00:00:39;;;;;;;6.15;5.65;;;;;;;;;;5005558;28;20180;-44
2021/05/03 00:03:06;;;;;;;5.55;5.05;;;;;;;;;;4996531;28;20863;-45
2021/05/03 00:05:31;;;;;;;6.67;6.07;;;;;;;;;;5007850;28;20581;-45
2021/05/03 00:07:56;;;;;;;5.88;5.38;;;;;;;;;;5008644;28;20608;-45
2021/05/03 00:10:21;;;;;;;6.10;5.57;;;;;;;;;;5000508;28;20623;-42
2021/05/03 00:12:46;;;;;;;5.53;5.13;;;;;;;;;;4990653;28;20241;-42
2021/05/03 00:15:13;;;;;;;5.93;5.40;;;;;;;;;;5000186;28;20209;-43
2021/05/03 00:17:38;;;;;;;5.60;5.20;;;;;;;;;;5004359;28;20266;-43
2021/05/03 00:20:04;;;;;;;6.20;5.70;;;;;;;;;;4999719;28;20610;-43
2021/05/03 00:22:29;;;;;;;6.60;5.90;;;;;;;;;;4995832;28;20200;-44
2021/05/03 00:24:54;;;;;;;6.70;6.13;;;;;;;;;;4996904;28;20333;-43
2021/05/03 00:27:19;;;;;;;6.55;6.05;;;;;;;;;;5002264;28;20560;-43
2021/05/03 00:29:44;;;;;;;6.20;5.75;;;;;;;;;;5003836;28;20203;-44
2021/05/03 00:32:09;;;;;;;7.22;6.53;;;;;;;;;;5000907;28;20203;-44
2021/05/03 00:34:35;;;;;;;6.32;5.72;;;;;;;;;;5003242;28;20667;-43
2021/05/03 00:37:00;;;;;;;6.32;5.82;;;;;;;;;;4997736;28;20187;-43
2021/05/03 00:39:25;;;;;;;6.60;5.93;;;;;;;;;;4998454;28;20195;-43
2021/05/03 00:41:50;;;;;;;7.73;7.03;;;;;;;;;;5008152;28;20557;-43
2021/05/03 00:44:15;;;;;;;7.68;6.97;;;;;;;;;;5009479;28;20179;-43
2021/05/03 00:46:40;;;;;;;7.22;6.63;;;;;;;;;;4997758;28;21644;-43
2021/05/03 00:49:06;;;;;;;8.27;7.57;;;;;;;;;;5009478;28;20243;-44
2021/05/03 00:51:31;;;;;;;8.47;7.77;;;;;;;;;;4998208;28;20239;-45
2021/05/03 00:53:56;;;;;;;6.90;6.30;;;;;;;;;;5002279;28;20175;-44
2021/05/03 00:56:22;;;;;;;6.53;6.03;;;;;;;;;;5001076;28;20182;-44
2021/05/03 00:58:47;;;;;;;7.27;6.67;;;;;;;;;;5007202;28;20217;-44
2021/05/03 01:01:12;;;;;;;6.60;6.00;;;;;;;;;;4999016;28;20255;-44
2021/05/03 01:03:37;;;;;;;6.63;6.13;;;;;;;;;;4999112;28;20678;-44
2021/05/03 01:06:02;;;;;;;7.00;6.30;;;;;;;;;;5005316;28;20200;-44
2021/05/03 01:08:28;;;;;;;7.67;6.97;;;;;;;;;;5008795;28;20279;-44
2021/05/03 01:10:53;;;;;;;7.88;7.07;;;;;;;;;;4998593;28;20207;-44
2021/05/03 01:13:18;;;;;;;7.43;6.77;;;;;;;;;;5006824;28;20242;-44
2021/05/03 01:15:43;;;;;;;7.30;6.70;;;;;;;;;;5008201;28;20730;-44
2021/05/03 01:18:08;;;;;;;6.47;5.87;;;;;;;;;;5000446;28;20575;-45
2021/05/03 01:20:35;;;;;;;7.60;6.90;;;;;;;;;;5007680;28;20180;-45
2021/05/03 01:23:00;;;;;;;7.20;6.70;;;;;;;;;;5004253;28;20179;-44
2021/05/03 01:25:28;;;;;;;7.47;6.87;;;;;;;;;;4998852;28;20607;-44
2021/05/03 01:27:54;;;;;;;8.10;7.30;;;;;;;;;;4990400;28;20266;-44
2021/05/03 01:30:19;;;;;;;7.20;6.60;;;;;;;;;;4995628;28;21264;-44
2021/05/03 01:32:44;;;;;;;7.40;5.57;;;;;;;;;;5004102;28;20177;-44
2021/05/03 01:35:13;;;;;;;6.97;6.40;;;;;;;;;;4995445;28;20779;-44
2021/05/03 01:37:38;;;;;;;6.60;6.00;;;;;;;;;;5001122;28;20187;-44
2021/05/03 01:40:04;;;;;;;6.45;5.85;;;;;;;;;;5001744;28;20689;-44
2021/05/03 01:42:29;;;;;;;6.10;5.60;;;;;;;;;;5007327;28;20570;-44
2021/05/03 01:44:55;;;;;;;6.25;5.80;;;;;;;;;;5006084;28;21049;-44
2021/05/03 01:47:21;;;;;;;5.53;5.03;;;;;;;;;;5004152;28;20261;-44
2021/05/03 01:49:46;;;;;;;7.07;6.50;;;;;;;;;;5004083;28;20682;-44
2021/05/03 01:52:11;;;;;;;5.70;5.30;;;;;;;;;;5004902;28;20259;-44
2021/05/03 01:54:37;;;;;;;5.77;5.27;;;;;;;;;;5002734;28;20175;-44
2021/05/03 01:57:02;;;;;;;5.13;4.73;;;;;;;;;;4997112;28;20611;-44
2021/05/03 01:59:32;;;;;;;6.50;5.70;;;;;;;;;;4998439;28;20216;-46
2021/05/03 02:01:58;;;;;;;5.50;5.10;;;;;;;;;;4997778;28;20175;-44
2021/05/03 02:04:23;;;;;;;5.93;5.43;;;;;;;;;;5002415;28;20689;-45
2021/05/03 02:06:48;;;;;;;5.82;5.25;;;;;;;;;;4998186;28;20196;-45
2021/05/03 02:09:13;;;;;;;5.43;4.97;;;;;;;;;;4995838;28;20205;-45
2021/05/03 02:11:41;;;;;;;5.77;5.33;;;;;;;;;;4991219;28;20367;-45
2021/05/03 02:14:08;;;;;;;5.77;5.17;;;;;;;;;;5005391;28;20216;-44
2021/05/03 02:16:33;;;;;;;5.70;5.20;;;;;;;;;;5000651;28;21133;-44
2021/05/03 02:18:58;;;;;;;6.20;5.70;;;;;;;;;;4999915;28;20987;-44
2021/05/03 02:21:23;;;;;;;8.77;5.88;;;;;;;;;;4997579;28;20202;-45
2021/05/03 02:23:49;;;;;;;5.70;5.20;;;;;;;;;;4988532;28;20181;-44
2021/05/03 02:26:14;;;;;;;5.60;5.20;;;;;;;;;;5001645;28;20892;-45
2021/05/03 02:28:40;;;;;;;5.60;5.07;;;;;;;;;;4998386;28;20198;-45
2021/05/03 02:31:05;;;;;;;6.40;5.13;;;;;;;;;;4990734;28;20178;-45
2021/05/03 02:33:30;;;;;;;5.20;4.70;;;;;;;;;;4998995;28;20170;-45
2021/05/03 02:35:55;;;;;;;6.50;5.60;;;;;;;;;;4994219;28;20204;-45
2021/05/03 02:38:20;;;;;;;6.05;5.55;;;;;;;;;;5006131;28;20737;-45
2021/05/03 02:40:45;;;;;;;6.87;6.27;;;;;;;;;;5007789;28;20209;-45
2021/05/03 02:43:10;;;;;;;6.35;5.75;;;;;;;;;;4997172;28;20235;-45
2021/05/03 02:45:36;;;;;;;6.55;5.75;;;;;;;;;;4995951;28;20195;-44
2021/05/03 02:48:01;;;;;;;6.50;5.90;;;;;;;;;;5002980;28;20170;-44
2021/05/03 02:50:27;;;;;;;7.30;6.60;;;;;;;;;;5001255;28;20179;-44
2021/05/03 02:52:53;;;;;;;7.07;6.27;;;;;;;;;;5007309;28;20573;-44
2021/05/03 02:55:18;;;;;;;6.50;6.00;;;;;;;;;;5000158;28;20178;-43
2021/05/03 02:57:44;;;;;;;6.90;6.30;;;;;;;;;;4998843;28;20184;-44
2021/05/03 03:00:11;;;;;;;7.50;6.13;;;;;;;;;;5000572;28;20174;-44
2021/05/03 03:02:36;;;;;;;6.10;5.60;;;;;;;;;;4999820;28;20173;-44
2021/05/03 03:05:01;;;;;;;8.37;6.03;;;;;;;;;;5011089;28;21219;-44
2021/05/03 03:07:27;;;;;;;6.23;5.70;;;;;;;;;;5009885;28;20175;-43
2021/05/03 03:09:52;;;;;;;8.93;6.43;;;;;;;;;;5010532;28;20632;-44
2021/05/03 03:12:17;;;;;;;5.85;5.40;;;;;;;;;;5009209;28;20221;-44
2021/05/03 03:14:43;;;;;;;5.80;5.40;;;;;;;;;;5001131;28;20215;-44
2021/05/03 03:17:08;;;;;;;6.20;5.70;;;;;;;;;;5007248;28;20226;-44
2021/05/03 03:19:37;;;;;;;9.13;6.50;;;;;;;;;;5008711;28;20507;-44
2021/05/03 03:22:02;;;;;;;6.43;5.83;;;;;;;;;;4994323;28;20184;-45
2021/05/03 03:24:27;;;;;;;6.40;5.30;;;;;;;;;;5006775;28;20608;-44
2021/05/03 03:26:53;;;;;;;6.18;5.57;;;;;;;;;;5009328;28;20627;-44
2021/05/03 03:29:18;;;;;;;6.95;6.25;;;;;;;;;;5007476;28;20189;-44
2021/05/03 03:31:43;;;;;;;6.00;5.47;;;;;;;;;;5009328;28;20245;-44
2021/05/03 03:34:08;;;;;;;5.88;5.47;;;;;;;;;;5007440;28;20202;-44
2021/05/03 03:36:33;;;;;;;6.78;6.07;;;;;;;;;;5006281;28;20721;-44
2021/05/03 03:39:00;;;;;;;7.65;6.15;;;;;;;;;;5000028;28;20200;-44
2021/05/03 03:41:25;;;;;;;6.70;5.70;;;;;;;;;;5005387;28;20654;-44
2021/05/03 03:43:50;;;;;;;6.50;5.90;;;;;;;;;;5008941;28;21070;-44
2021/05/03 03:46:20;;;;;;;7.70;7.00;;;;;;;;;;5007647;28;20646;-45
2021/05/03 03:48:45;;;;;;;7.60;6.30;;;;;;;;;;5006136;28;20620;-44
2021/05/03 03:51:10;;;;;;;7.97;7.15;;;;;;;;;;5002198;28;21169;-44
2021/05/03 03:53:35;;;;;;;6.73;6.17;;;;;;;;;;5005771;28;20666;-44
2021/05/03 03:56:00;;;;;;;7.13;6.43;;;;;;;;;;5001460;28;20409;-44
2021/05/03 03:58:25;;;;;;;9.60;6.30;;;;;;;;;;5005421;28;20206;-43
2021/05/03 04:00:51;;;;;;;6.93;6.32;;;;;;;;;;5006222;28;20715;-43
2021/05/03 04:03:16;;;;;;;6.80;6.20;;;;;;;;;;5001533;28;20177;-43
2021/05/03 04:06:12;;;;;;;6.80;6.20;;;;;;;;;;5003093;28;20218;-44
2021/05/03 04:14:23;;;;;;;6.73;6.00;;;;;;;;;;4997674;28;20594;-44
2021/05/03 04:22:39;;;;;;;6.70;6.10;;;;;;;;;;5000120;28;20597;-45
2021/05/03 04:25:14;;;;;;;7.00;5.80;;;;;;;;;;5013460;28;20604;-45
2021/05/03 04:27:39;;;;;;;8.13;7.33;;;;;;;;;;5008687;28;21158;-44
2021/05/03 04:30:06;;;;;;;6.57;5.97;;;;;;;;;;5005178;28;20719;-44
2021/05/03 04:32:31;;;;;;;6.50;5.17;;;;;;;;;;5007132;28;20175;-45
2021/05/03 04:34:56;;;;;;;5.57;4.90;;;;;;;;;;5002011;28;20751;-44
2021/05/03 04:37:21;;;;;;;8.73;5.03;;;;;;;;;;5005078;28;20183;-44
2021/05/03 04:39:47;;;;;;;6.22;5.63;;;;;;;;;;5004200;28;20212;-44
2021/05/03 04:42:12;;;;;;;5.23;4.83;;;;;;;;;;5005647;28;20244;-44
2021/05/03 04:44:37;;;;;;;5.72;5.22;;;;;;;;;;5004973;28;20184;-44
2021/05/03 04:47:02;;;;;;;5.75;5.25;;;;;;;;;;5004958;28;20196;-44
2021/05/03 04:49:27;;;;;;;5.32;4.82;;;;;;;;;;5005154;28;20183;-44
2021/05/03 04:51:52;;;;;;;6.30;5.47;;;;;;;;;;5004707;28;20195;-44
2021/05/03 04:54:17;;;;;;;7.10;5.33;;;;;;;;;;5005333;28;20208;-44
2021/05/03 04:56:43;;;;;;;5.78;5.28;;;;;;;;;;5004896;28;20235;-45
2021/05/03 04:59:08;;;;;;;6.85;5.05;;;;;;;;;;5003784;28;20704;-45
2021/05/03 05:01:33;;;;;;;4.93;4.43;;;;;;;;;;5002644;28;20180;-45
2021/05/03 05:03:58;;;;;;;4.60;4.30;;;;;;;;;;4998559;28;20174;-45
2021/05/03 05:06:23;;;;;;;5.17;4.67;;;;;;;;;;4995742;28;20184;-45
2021/05/03 05:08:49;;;;;;;5.50;5.00;;;;;;;;;;4996433;28;20185;-44
2021/05/03 05:11:14;;;;;;;4.73;4.43;;;;;;;;;;4999745;28;20208;-44
2021/05/03 05:13:39;;;;;;;4.95;4.55;;;;;;;;;;5005152;28;20745;-44
2021/05/03 05:16:04;;;;;;;5.22;4.82;;;;;;;;;;4996960;28;20544;-43
2021/05/03 05:18:30;;;;;;;5.03;4.60;;;;;;;;;;4995326;28;20232;-44
2021/05/03 05:20:55;;;;;;;5.43;4.77;;;;;;;;;;4994583;28;20248;-43
2021/05/03 05:23:21;;;;;;;4.90;4.50;;;;;;;;;;4997339;28;20204;-44
2021/05/03 05:25:46;;;;;;;5.00;4.60;;;;;;;;;;4990016;28;20180;-44
2021/05/03 05:28:29;;;;;;;5.57;5.07;;;;;;;;;;4988740;28;21514;-45
2021/05/03 05:30:54;;;;;;;4.87;4.43;;;;;;;;;;4986748;28;20639;-44
2021/05/03 05:33:20;;;;;;;6.32;4.40;;;;;;;;;;4985086;28;20958;-44
2021/05/03 05:35:45;;;;;;;5.20;4.70;;;;;;;;;;4982368;28;20176;-44
2021/05/03 05:38:10;;;;;;;4.73;4.33;;;;;;;;;;4992375;28;20215;-44
2021/05/03 05:40:35;;;;;;;5.93;4.60;;;;;;;;;;4999389;28;20165;-45
2021/05/03 05:43:04;;;;;;;6.43;4.25;;;;;;;;;;5001349;28;20530;-45
2021/05/03 05:45:29;;;;;;;4.70;4.20;;;;;;;;;;5004903;28;20180;-45
2021/05/03 05:47:54;;;;;;;4.97;4.57;;;;;;;;;;4994547;28;20599;-44
2021/05/03 05:50:19;;;;;;;5.40;4.70;;;;;;;;;;4995919;28;20217;-44
2021/05/03 05:52:44;;;;;;;4.80;4.50;;;;;;;;;;5001354;28;20637;-44
2021/05/03 05:55:10;;;;;;;6.78;4.30;;;;;;;;;;4997902;28;20538;-44
2021/05/03 05:57:35;;;;;;;5.50;5.00;;;;;;;;;;4999775;28;20263;-44
2021/05/03 06:00:00;;;;;;;5.90;4.60;;;;;;;;;;4999302;28;20288;-44
2021/05/03 06:02:25;;;;;;;5.57;4.28;;;;;;;;;;5003918;28;20560;-44
2021/05/03 06:04:50;;;;;;;4.65;4.25;;;;;;;;;;5001268;28;20390;-44
2021/05/03 06:07:16;;;;;;;5.80;5.30;;;;;;;;;;5001243;28;20228;-44
2021/05/03 06:09:42;;;;;;;5.17;4.67;;;;;;;;;;4999866;28;20560;-44
2021/05/03 06:12:07;;;;;;;5.80;5.20;;;;;;;;;;4997123;28;20257;-45
2021/05/03 06:14:32;;;;;;;7.10;5.30;;;;;;;;;;4999851;28;20253;-45
2021/05/03 06:16:57;;;;;;;6.50;5.53;;;;;;;;;;5001421;28;20180;-44
2021/05/03 06:19:22;;;;;;;8.85;5.90;;;;;;;;;;5002497;28;20219;-44
2021/05/03 06:21:48;;;;;;;6.30;5.60;;;;;;;;;;5002302;28;20766;-44
2021/05/03 06:24:13;;;;;;;5.93;5.43;;;;;;;;;;4995090;28;20189;-44
2021/05/03 06:26:38;;;;;;;6.55;5.95;;;;;;;;;;4986495;28;20288;-44
2021/05/03 06:29:03;;;;;;;6.60;6.10;;;;;;;;;;5002849;28;20544;-44
2021/05/03 06:31:31;;;;;;;6.00;5.43;;;;;;;;;;5007574;28;20187;-44
2021/05/03 06:33:56;;;;;;;6.10;5.47;;;;;;;;;;4999077;28;20200;-43
2021/05/03 06:36:21;;;;;;;7.57;6.00;;;;;;;;;;5006528;28;20625;-44
2021/05/03 06:38:46;;;;;;;6.50;5.65;;;;;;;;;;5000489;28;20274;-44
2021/05/03 06:41:11;;;;;;;5.67;5.20;;;;;;;;;;5008113;28;20177;-44
2021/05/03 06:43:36;;;;;;;6.60;6.00;;;;;;;;;;5001776;28;20628;-44
2021/05/03 06:46:02;;;;;;;5.97;5.50;;;;;;;;;;5009130;28;20173;-44
2021/05/03 06:48:30;;;;;;;6.80;6.20;;;;;;;;;;5008109;28;20178;-50
2021/05/03 06:50:55;;;;;;;6.57;6.07;;;;;;;;;;5002328;28;20187;-45
2021/05/03 06:53:21;;;;;;;7.03;6.47;;;;;;;;;;5007379;28;20935;-44
2021/05/03 06:55:46;;;;;;;7.35;6.65;;;;;;;;;;5007523;28;20200;-44
2021/05/03 06:58:11;;;;;;;7.70;6.93;;;;;;;;;;5002213;28;20302;-45
2021/05/03 07:00:40;;;;;;;6.57;6.07;;;;;;;;;;4999317;28;20177;-44
2021/05/03 07:03:06;;;;;;;7.20;6.50;;;;;;;;;;5000763;28;20176;-44
2021/05/03 07:05:31;;;;;;;7.13;6.53;;;;;;;;;;4991288;28;20653;-44
2021/05/03 07:07:56;;;;;;;6.57;6.07;;;;;;;;;;4996691;28;20606;-44
2021/05/03 07:10:21;;;;;;;6.32;5.82;;;;;;;;;;4996036;28;20485;-44
2021/05/03 07:12:48;;;;;;;6.87;6.17;;;;;;;;;;4985533;28;20221;-44
2021/05/03 07:15:13;;;;;;;6.07;5.57;;;;;;;;;;4984271;28;20162;-44
2021/05/03 07:17:39;;;;;;;5.63;5.23;;;;;;;;;;4989336;28;20647;-44
2021/05/03 07:20:05;;;;;;;5.93;5.50;;;;;;;;;;5005102;28;20207;-45
2021/05/03 07:22:30;;;;;;;5.03;4.63;;;;;;;;;;5003935;28;20254;-43
2021/05/03 07:24:56;;;;;;;4.70;4.20;;;;;;;;;;5000397;28;20688;-43
2021/05/03 07:27:21;;;;;;;4.38;4.00;;;;;;;;;;5005243;28;20180;-44
2021/05/03 07:29:46;;;;;;;4.53;4.15;;;;;;;;;;5006427;28;20263;-44
2021/05/03 07:32:11;;;;;;;5.40;3.90;;;;;;;;;;5001833;28;20178;-53
2021/05/03 07:34:37;;;;;;;4.10;3.80;;;;;;;;;;5003311;28;20456;-44
2021/05/03 07:37:03;;;;;;;3.97;3.67;;;;;;;;;;5001101;28;20203;-44
2021/05/03 07:39:28;;;;;;;3.73;3.53;;;;;;;;;;5001740;28;20635;-44
2021/05/03 07:41:54;;;;;;;4.13;3.80;;;;;;;;;;5004813;28;20782;-42
2021/05/03 07:44:21;;;;;;;3.53;3.30;;;;;;;;;;5006990;28;20196;-43
2021/05/03 07:46:46;;;;;;;5.07;4.57;;;;;;;;;;5002920;28;20196;-49
2021/05/03 07:49:11;;;;;;;4.75;4.45;;;;;;;;;;5002027;28;20602;-44
2021/05/03 07:51:36;;;;;;;4.30;4.03;;;;;;;;;;5002556;28;20849;-43
2021/05/03 07:54:01;;;;;;;5.47;4.90;;;;;;;;;;5001264;28;20190;-44
2021/05/03 07:56:30;;;;;;;5.40;5.00;;;;;;;;;;5004705;28;20275;-43
2021/05/03 07:58:55;;;;;;;4.37;4.07;;;;;;;;;;5004463;28;20289;-44
2021/05/03 08:01:20;;;;;;;4.75;4.35;;;;;;;;;;5003954;28;20701;-44
2021/05/03 08:03:46;;;;;;;5.85;5.25;;;;;;;;;;5001259;28;20193;-43
2021/05/03 08:06:13;;;;;;;5.57;5.05;;;;;;;;;;5002740;28;20534;-44
2021/05/03 08:08:42;;;;;;;4.87;4.20;;;;;;;;;;5004292;28;20183;-44
2021/05/03 08:11:08;;;;;;;5.77;5.00;;;;;;;;;;5005779;28;21398;-44
2021/05/03 08:13:33;;;;;;;4.77;4.23;;;;;;;;;;5005888;28;20605;-44
2021/05/03 08:16:01;;;;;;;6.33;5.73;;;;;;;;;;5000687;28;20198;-42
2021/05/03 08:18:26;;;;;;;5.77;5.33;;;;;;;;;;5000546;28;20240;-45
2021/05/03 08:20:53;;;;;;;5.63;5.20;;;;;;;;;;5004339;28;21140;-45
2021/05/03 08:23:20;;;;;;;5.43;5.00;;;;;;;;;;5005619;28;20636;-44
2021/05/03 08:25:49;;;;;;;5.20;4.80;;;;;;;;;;5000695;28;21018;-45
2021/05/03 08:28:15;;;;;;;4.70;4.40;;;;;;;;;;5000494;28;20586;-44
2021/05/03 08:30:40;;;;;;;6.40;4.87;;;;;;;;;;5002251;28;20635;-43
2021/05/03 08:33:06;;;;;;;5.70;5.30;;;;;;;;;;4999896;28;20181;-44
2021/05/03 08:35:31;;;;;;;4.90;4.50;;;;;;;;;;5006122;28;20584;-44
2021/05/03 08:37:56;;;;;;;4.23;3.83;;;;;;;;;;5003365;28;20263;-44
2021/05/03 08:40:21;;;;;;;5.00;4.60;;;;;;;;;;5001859;28;20196;-44
2021/05/03 08:42:46;;;;;;;5.30;4.90;;;;;;;;;;5000315;28;20178;-44
2021/05/03 08:45:12;;;;;;;4.50;4.20;;;;;;;;;;5001336;28;20166;-45
2021/05/03 08:47:40;;;;;;;4.23;3.93;;;;;;;;;;5000198;28;20263;-45
2021/05/03 08:50:19;;;;;;;6.80;4.10;;;;;;;;;;5003563;28;20572;-45
2021/05/03 08:52:46;;;;;;;4.60;4.20;;;;;;;;;;5005277;28;20603;-44
2021/05/03 08:55:12;;;;;;;5.17;4.87;;;;;;;;;;5003498;28;20633;-43
2021/05/03 08:57:38;;;;;;;5.20;4.80;;;;;;;;;;5000077;28;20599;-44
2021/05/03 09:00:05;;;;;;;5.20;4.90;;;;;;;;;;5001546;28;20649;-44
2021/05/03 09:02:30;;;;;;;5.47;4.97;;;;;;;;;;5000209;28;20185;-44
2021/05/03 09:04:56;;;;;;;4.50;4.20;;;;;;;;;;5001767;28;20629;-44
2021/05/03 09:07:21;;;;;;;5.93;5.43;;;;;;;;;;5004755;28;20202;-43
2021/05/03 09:09:52;;;;;;;5.30;4.90;;;;;;;;;;5001348;28;20243;-44
2021/05/03 09:12:18;;;;;;;5.77;5.40;;;;;;;;;;4999699;28;20247;-44
2021/05/03 09:14:48;;;;;;;5.20;4.80;;;;;;;;;;5001646;28;20586;-44
2021/05/03 09:17:27;;;;;;;6.30;5.80;;;;;;;;;;5001491;28;20633;-44
2021/05/03 09:19:52;;;;;;;5.80;5.40;;;;;;;;;;5001381;28;21101;-43
2021/05/03 09:22:32;;;;;;;4.97;4.67;;;;;;;;;;5004690;28;20965;-44
2021/05/03 09:25:13;;;;;;;5.33;4.90;;;;;;;;;;5003147;28;20164;-44
2021/05/03 09:27:39;;;;;;;5.80;5.40;;;;;;;;;;5001199;28;20580;-45
2021/05/03 09:30:04;;;;;;;4.93;4.57;;;;;;;;;;5000755;28;20623;-43
2021/05/03 09:32:29;;;;;;;4.97;4.67;;;;;;;;;;4999805;28;20277;-43
2021/05/03 09:34:54;;;;;;;5.10;4.80;;;;;;;;;;5002703;28;20184;-43
2021/05/03 09:37:28;;;;;;;4.90;4.50;;;;;;;;;;5004365;28;20199;-43
2021/05/03 09:40:14;;;;;;;4.60;4.20;;;;;;;;;;4999363;28;20197;-43
2021/05/03 09:42:41;;;;;;;4.30;4.00;;;;;;;;;;5000738;28;20691;-43
2021/05/03 09:45:08;;;;;;;3.90;3.70;;;;;;;;;;4998829;28;20687;-43
2021/05/03 09:47:34;;;;;;;3.90;3.70;;;;;;;;;;5004249;28;20615;-43
2021/05/03 09:50:04;;;;;;;3.30;3.10;;;;;;;;;;5003031;28;21112;-44
2021/05/03 09:52:29;;;;;;;3.67;3.40;;;;;;;;;;5000947;28;20607;-44
2021/05/03 09:54:54;;;;;;;3.50;3.20;;;;;;;;;;4999080;28;20597;-44
2021/05/03 09:57:19;;;;;;;2.90;2.80;;;;;;;;;;4998733;28;20185;-44
2021/05/03 09:59:47;;;;;;;3.70;3.40;;;;;;;;;;5001094;28;20202;-44
2021/05/03 10:04:55;;;;;;;3.70;3.50;;;;;;;;;;4981418;28;20564;-44
2021/05/03 10:07:22;;;;;;;3.67;3.47;;;;;;;;;;4983532;28;20593;-43
2021/05/03 10:09:52;;;;;;;3.60;3.30;;;;;;;;;;4998827;28;20616;-44
2021/05/03 10:12:18;;;;;;;3.93;3.37;;;;;;;;;;5004264;28;20651;-44
2021/05/03 10:14:44;;;;;;;3.63;3.43;;;;;;;;;;5004066;28;20995;-44
2021/05/03 10:17:10;;;;;;;4.20;3.90;;;;;;;;;;5000673;28;20189;-44
2021/05/03 10:19:35;;;;;;;3.90;3.60;;;;;;;;;;4998509;28;21978;-43
2021/05/03 10:22:03;;;;;;;3.10;2.90;;;;;;;;;;4999065;28;20259;-42
2021/05/03 10:24:28;;;;;;;3.87;3.63;;;;;;;;;;5002401;28;20166;-43
2021/05/03 10:26:53;;;;;;;3.47;3.27;;;;;;;;;;5002603;28;20711;-44
2021/05/03 10:29:25;;;;;;;3.63;3.30;;;;;;;;;;5000968;28;20177;-45
2021/05/03 10:31:58;;;;;;;4.00;3.60;;;;;;;;;;4998828;28;20220;-45
2021/05/03 10:34:35;;;;;;;3.23;3.03;;;;;;;;;;5002127;28;20674;-46
2021/05/03 10:37:00;;;;;;;3.13;2.93;;;;;;;;;;5002103;28;20608;-43
2021/05/03 10:39:28;;;;;;;3.08;2.88;;;;;;;;;;4999896;28;20721;-44
2021/05/03 10:42:04;;;;;;;3.20;3.00;;;;;;;;;;4998787;28;20610;-46
2021/05/03 10:44:29;;;;;;;3.63;3.07;;;;;;;;;;4998824;28;21149;-44
2021/05/03 10:47:00;;;;;;;3.00;2.77;;;;;;;;;;5001861;28;20606;-43
2021/05/03 10:49:33;;;;;;;2.93;2.67;;;;;;;;;;5003273;28;20664;-44
2021/05/03 10:52:01;;;;;;;2.90;2.70;;;;;;;;;;4998579;28;20584;-44
2021/05/03 10:54:30;;;;;;;3.00;2.70;;;;;;;;;;4989816;28;20596;-44
2021/05/03 10:56:57;;;;;;;2.93;2.63;;;;;;;;;;5000533;28;20606;-44
2021/05/03 10:59:22;;;;;;;3.30;3.00;;;;;;;;;;5003541;28;20643;-44
2021/05/03 11:01:56;;;;;;;2.43;2.33;;;;;;;;;;4999962;28;20603;-44
2021/05/03 11:04:22;;;;;;;2.47;2.37;;;;;;;;;;4998619;28;20259;-44
2021/05/03 11:06:47;;;;;;;3.03;2.83;;;;;;;;;;4998751;28;20584;-44
2021/05/03 11:09:27;;;;;;;4.35;2.72;;;;;;;;;;5002128;28;20625;-44
2021/05/03 11:11:52;;;;;;;3.30;2.80;;;;;;;;;;5002020;28;20244;-44
2021/05/03 11:14:20;;;;;;;2.53;2.43;;;;;;;;;;5000248;28;20580;-44
2021/05/03 11:16:46;;;;;;;4.13;3.17;;;;;;;;;;4998835;28;20196;-44
2021/05/03 11:19:31;;;;;;;2.80;2.60;;;;;;;;;;4999428;28;20648;-44
2021/05/03 11:21:56;;;;;;;2.27;2.17;;;;;;;;;;5002697;28;20640;-43
2021/05/03 11:27:01;;;;;;;2.30;2.10;;;;;;;;;;5003611;28;20589;-44
2021/05/03 11:32:15;;;;;;;2.53;2.40;;;;;;;;;;4993095;28;20945;-43
2021/05/03 11:35:02;;;;;;;3.23;2.13;;;;;;;;;;5004995;28;20600;-43
2021/05/03 11:37:35;;;;;;;2.50;2.00;;;;;;;;;;5006391;28;20193;-43
2021/05/03 11:40:17;;;;;;;2.70;2.50;;;;;;;;;;5003482;28;20636;-44
2021/05/03 11:45:39;;;;;;;2.10;2.00;;;;;;;;;;4999114;28;20611;-44
2021/05/03 11:48:04;;;;;;;3.20;2.40;;;;;;;;;;5001181;28;20599;-44
2021/05/03 11:50:29;;;;;;;3.20;3.00;;;;;;;;;;5006534;28;20584;-44
2021/05/03 11:52:55;;;;;;;2.70;2.50;;;;;;;;;;5004819;28;20180;-44
2021/05/03 11:55:24;;;;;;;2.73;2.53;;;;;;;;;;5001079;28;20615;-44
2021/05/03 11:57:49;;;;;;;2.70;2.50;;;;;;;;;;5001214;28;20224;-44
2021/05/03 12:00:17;;;;;;;2.80;2.60;;;;;;;;;;5002693;28;21219;-44
2021/05/03 12:02:43;;;;;;;2.70;2.50;;;;;;;;;;5006531;28;20704;-43
2021/05/03 12:05:15;;;;;;;2.57;2.33;;;;;;;;;;5004507;28;20605;-44
2021/05/03 12:07:41;;;;;;;2.73;2.63;;;;;;;;;;5002600;28;20182;-44
2021/05/03 12:10:08;;;;;;;2.43;2.23;;;;;;;;;;5000513;28;20628;-44
2021/05/03 12:12:33;;;;;;;2.70;2.50;;;;;;;;;;5000793;28;20706;-44
2021/05/03 12:14:58;;;;;;;2.90;2.70;;;;;;;;;;5000761;28;20745;-44
2021/05/03 12:17:28;;;;;;;2.73;2.53;;;;;;;;;;5006105;28;20214;-45
2021/05/03 12:19:54;;;;;;;2.70;2.50;;;;;;;;;;4996593;28;20257;-45
2021/05/03 12:22:21;;;;;;;2.33;2.13;;;;;;;;;;5002073;28;20951;-45
2021/05/03 12:24:47;;;;;;;2.93;2.80;;;;;;;;;;5000800;28;20580;-45
2021/05/03 12:27:12;;;;;;;3.60;3.30;;;;;;;;;;5002051;28;20642;-45
2021/05/03 12:29:39;;;;;;;3.07;2.87;;;;;;;;;;4999837;28;20660;-45
2021/05/03 12:32:07;;;;;;;2.60;2.40;;;;;;;;;;5003989;28;20941;-44
2021/05/03 12:34:37;;;;;;;3.10;2.80;;;;;;;;;;5005662;28;20582;-44
2021/05/03 12:37:06;;;;;;;3.40;3.10;;;;;;;;;;5000200;28;21253;-44
2021/05/03 12:39:35;;;;;;;3.80;2.87;;;;;;;;;;5000121;28;20736;-43
2021/05/03 12:42:10;;;;;;;6.13;3.50;;;;;;;;;;5000363;28;20672;-44
2021/05/03 12:44:48;;;;;;;3.07;2.87;;;;;;;;;;4999826;28;20562;-44
2021/05/03 12:47:19;;;;;;;3.03;2.83;;;;;;;;;;5005266;28;20589;-44
2021/05/03 12:49:52;;;;;;;3.20;3.00;;;;;;;;;;5003099;28;20601;-44
2021/05/03 12:52:25;;;;;;;3.33;3.10;;;;;;;;;;4999893;28;20620;-45
2021/05/03 12:55:05;;;;;;;3.30;3.10;;;;;;;;;;4999559;28;20569;-44
2021/05/03 12:57:52;;;;;;;3.27;3.07;;;;;;;;;;5001453;28;21147;-44
2021/05/03 13:00:23;;;;;;;3.33;3.13;;;;;;;;;;5004818;28;20672;-44
2021/05/03 13:03:14;;;;;;;4.30;3.20;;;;;;;;;;5005500;28;20570;-43
2021/05/03 13:05:45;;;;;;;4.53;4.10;;;;;;;;;;5001390;28;20588;-43
2021/05/03 13:08:26;;;;;;;3.90;3.70;;;;;;;;;;5000375;28;20606;-44
2021/05/03 13:11:28;;;;;;;12.30;11.03;;;;;;;;;;4998977;28;20628;-44
2021/05/03 13:25:36;;;;;;;5.27;4.87;;;;;;;;;;4979261;28;20952;-44
2021/05/03 13:28:05;;;;;;;5.10;4.80;;;;;;;;;;4982539;28;21160;-44
2021/05/03 13:30:31;;;;;;;4.97;4.60;;;;;;;;;;5007934;28;20913;-44
2021/05/03 13:32:56;;;;;;;4.87;4.47;;;;;;;;;;5002268;28;20614;-44
2021/05/03 13:35:21;;;;;;;4.93;4.63;;;;;;;;;;5002261;28;20180;-44
2021/05/03 13:37:47;;;;;;;3.80;3.60;;;;;;;;;;5000673;28;20601;-44
2021/05/03 13:40:13;;;;;;;6.10;5.63;;;;;;;;;;4999187;28;20199;-45
2021/05/03 13:42:41;;;;;;;5.37;5.03;;;;;;;;;;5003136;28;20595;-45
2021/05/03 13:45:07;;;;;;;4.70;4.40;;;;;;;;;;4996832;28;20617;-45
2021/05/03 13:47:32;;;;;;;5.30;5.00;;;;;;;;;;5001668;28;20647;-45
2021/05/03 13:49:58;;;;;;;11.53;10.63;;;;;;;;;;4992323;28;20644;-44
2021/05/03 13:52:23;;;;;;;11.13;10.13;;;;;;;;;;4996096;28;20270;-43
2021/05/03 13:54:48;;;;;;;9.60;8.70;;;;;;;;;;4996066;28;20281;-44
2021/05/03 13:57:13;;;;;;;6.87;6.37;;;;;;;;;;5001782;28;20182;-43
2021/05/03 13:59:38;;;;;;;5.70;5.30;;;;;;;;;;5000633;28;20727;-43
2021/05/03 14:02:06;;;;;;;4.53;4.23;;;;;;;;;;4997467;28;20182;-44
2021/05/03 14:04:31;;;;;;;5.87;5.47;;;;;;;;;;4995775;28;20185;-44
2021/05/03 14:06:57;;;;;;;4.93;4.63;;;;;;;;;;4996647;28;20577;-43
2021/05/03 14:09:22;;;;;;;4.83;4.57;;;;;;;;;;4992876;28;20186;-43
2021/05/03 14:11:48;;;;;;;4.90;4.60;;;;;;;;;;4991881;28;20603;-43
2021/05/03 14:14:13;;;;;;;5.67;5.27;;;;;;;;;;4994872;28;20224;-44
2021/05/03 14:16:39;;;;;;;4.60;4.30;;;;;;;;;;4996230;28;20921;-43
2021/05/03 14:19:08;;;;;;;5.10;4.80;;;;;;;;;;5001192;28;20199;-43
2021/05/03 14:21:34;;;;;;;4.83;4.43;;;;;;;;;;5003993;28;20585;-44
2021/05/03 14:23:59;;;;;;;4.87;4.57;;;;;;;;;;4999422;28;20597;-43
2021/05/03 14:26:26;;;;;;;6.60;6.10;;;;;;;;;;5013521;28;20194;-43
2021/05/03 14:29:05;;;;;;;4.83;4.53;;;;;;;;;;5009009;28;20178;-43
2021/05/03 14:31:39;;;;;;;5.80;4.97;;;;;;;;;;5003734;28;20932;-44
2021/05/03 14:34:16;;;;;;;4.30;4.00;;;;;;;;;;4998378;28;21025;-44
2021/05/03 14:36:43;;;;;;;5.07;4.77;;;;;;;;;;4998753;28;21318;-44
2021/05/03 14:39:08;;;;;;;4.27;3.97;;;;;;;;;;4999346;28;21482;-44
2021/05/03 14:41:33;;;;;;;4.10;3.80;;;;;;;;;;5003368;28;20670;-44
2021/05/03 14:43:59;;;;;;;3.50;3.30;;;;;;;;;;5001757;28;20209;-44
2021/05/03 14:47:28;;;;;;;4.67;4.20;;;;;;;;;;5003352;28;20170;-43
2021/05/03 14:49:31;;;;;;;3.80;3.50;;;;;;;;;;5006108;28;20228;-44
2021/05/03 14:52:01;;;;;;;4.30;4.00;;;;;;;;;;4997869;28;20607;-44
2021/05/03 14:54:40;;;;;;;3.63;3.43;;;;;;;;;;4997757;28;20601;-44
2021/05/03 14:57:08;;;;;;;3.47;3.27;;;;;;;;;;5000294;28;21110;-44
2021/05/03 14:59:33;;;;;;;4.10;3.80;;;;;;;;;;5003710;28;20650;-45
2021/05/03 15:01:59;;;;;;;3.60;3.40;;;;;;;;;;5004540;28;20596;-45
2021/05/03 15:04:24;;;;;;;3.50;3.30;;;;;;;;;;5002691;28;20251;-45
2021/05/03 15:06:52;;;;;;;3.63;3.33;;;;;;;;;;5002956;28;20176;-44
2021/05/03 15:09:26;;;;;;;4.17;3.90;;;;;;;;;;5004631;28;20279;-44
2021/05/03 15:11:54;;;;;;;4.23;3.93;;;;;;;;;;5005940;28;21234;-44
2021/05/03 15:14:28;;;;;;;3.70;3.50;;;;;;;;;;5003179;28;20606;-43
2021/05/03 15:17:10;;;;;;;3.80;3.50;;;;;;;;;;4995051;28;20605;-44